createdAt,value
2023-01-06T00:01:12.752Z,73.04
2023-01-06T00:03:39.505Z,72.70
2023-01-06T00:06:07.984Z,72.14
2023-01-06T00:08:35.873Z,71.72
2023-01-06T00:11:10.171Z,70.80
2023-01-06T00:13:37.326Z,71.27
2023-01-06T00:16:08.952Z,70.60
2023-01-06T00:18:35.644Z,70.81
2023-01-06T00:21:02.566Z,70.76
2023-01-06T00:23:29.121Z,70.57
2023-01-06T00:25:55.755Z,70.61
2023-01-06T00:28:22.403Z,70.80
2023-01-06T00:30:48.965Z,70.90
2023-01-06T00:33:15.691Z,70.93
2023-01-06T00:35:42.264Z,71.00
2023-01-06T00:38:08.778Z,71.11
2023-01-06T00:40:36.709Z,71.14
2023-01-06T00:43:03.759Z,71.42
2023-01-06T00:45:31.173Z,71.47
2023-01-06T00:47:57.697Z,71.42
2023-01-06T00:50:24.340Z,71.43
2023-01-06T00:52:51.273Z,71.81
2023-01-06T00:55:17.817Z,71.98
2023-01-06T00:57:44.344Z,71.82
2023-01-06T01:00:12.551Z,71.86
2023-01-06T01:02:39.154Z,71.84
2023-01-06T01:05:05.959Z,71.75
2023-01-06T01:07:32.546Z,71.75
2023-01-06T01:09:59.264Z,71.88
2023-01-06T01:12:25.859Z,72.02
2023-01-06T01:14:53.984Z,71.97
2023-01-06T01:17:24.653Z,71.14
2023-01-06T01:19:53.002Z,71.87
2023-01-06T01:22:19.875Z,72.18
2023-01-06T01:24:46.469Z,72.36
2023-01-06T01:27:13.615Z,72.40
2023-01-06T01:29:40.132Z,72.17
2023-01-06T01:32:07.180Z,72.06
2023-01-06T01:34:34.153Z,71.81
2023-01-06T01:37:01.647Z,71.75
2023-01-06T01:39:29.364Z,71.61
2023-01-06T01:41:57.236Z,71.71
2023-01-06T01:45:05.665Z,70.25
2023-01-06T01:47:38.875Z,70.83
2023-01-06T01:50:16.984Z,70.48
2023-01-06T01:52:45.245Z,70.33
2023-01-06T01:55:12.615Z,71.07
2023-01-06T01:57:49.140Z,70.42
2023-01-06T02:00:17.380Z,71.03
2023-01-06T02:02:44.681Z,71.14
2023-01-06T02:05:20.235Z,70.43
2023-01-06T02:07:47.928Z,71.39
2023-01-06T02:10:18.597Z,71.06
2023-01-06T02:12:48.792Z,71.31
2023-01-06T02:15:22.675Z,71.46
2023-01-06T02:18:03.531Z,71.46
2023-01-06T02:20:46.691Z,69.57
2023-01-06T02:23:28.264Z,69.55
2023-01-06T02:25:55.463Z,70.63
2023-01-06T02:29:00.246Z,69.20
2023-01-06T02:31:58.086Z,69.32
2023-01-06T02:34:30.863Z,69.07
2023-01-06T02:37:11.066Z,69.44
2023-01-06T02:40:09.802Z,68.96
2023-01-06T02:42:42.644Z,69.18
2023-01-06T02:45:21.730Z,69.60
2023-01-06T02:48:20.043Z,68.55
2023-01-06T02:50:56.391Z,68.77
2023-01-06T02:53:34.489Z,68.88
2023-01-06T02:56:03.333Z,69.45
2023-01-06T02:59:00.479Z,68.77
2023-01-06T03:01:35.829Z,69.13
2023-01-06T03:04:07.285Z,69.50
2023-01-06T03:06:36.495Z,69.35
2023-01-06T03:09:05.492Z,69.27
2023-01-06T03:11:39.519Z,69.48
2023-01-06T03:14:35.283Z,68.34
2023-01-06T03:17:02.714Z,69.60
2023-01-06T03:19:30.715Z,68.70
2023-01-06T03:22:00.771Z,69.56
2023-01-06T03:24:28.780Z,69.63
2023-01-06T03:26:55.964Z,69.77
2023-01-06T03:29:23.412Z,69.85
2023-01-06T03:32:08.878Z,69.39
2023-01-06T03:35:04.632Z,68.68
2023-01-06T03:37:48.596Z,69.30
2023-01-06T03:40:40.126Z,69.37
2023-01-06T03:43:21.829Z,69.26
2023-01-06T03:46:15.942Z,69.89
2023-01-06T03:48:58.239Z,69.61
2023-01-06T03:51:43.657Z,69.10
2023-01-06T03:54:35.034Z,69.01
2023-01-06T03:57:16.761Z,69.61
2023-01-06T04:00:13.568Z,69.56
2023-01-06T04:02:41.505Z,69.68
2023-01-06T04:05:17.003Z,69.70
2023-01-06T04:07:46.451Z,69.98
2023-01-06T04:10:16.618Z,69.93
2023-01-06T04:12:44.351Z,69.90
2023-01-06T04:15:21.585Z,69.86
2023-01-06T04:17:49.871Z,69.82
2023-01-06T04:20:21.597Z,69.76
2023-01-06T04:22:50.393Z,69.79
2023-01-06T04:25:17.331Z,69.81
2023-01-06T04:27:44.575Z,69.81
2023-01-06T04:30:12.944Z,69.76
2023-01-06T04:32:39.966Z,69.62
2023-01-06T04:35:09.013Z,69.85
2023-01-06T04:37:35.988Z,69.76
2023-01-06T04:40:02.990Z,69.89
2023-01-06T04:42:29.783Z,69.85
2023-01-06T04:44:56.490Z,70.03
2023-01-06T04:47:23.313Z,69.81
2023-01-06T04:49:50.185Z,69.86
2023-01-06T04:52:17.028Z,69.82
2023-01-06T04:54:43.943Z,69.62
2023-01-06T04:57:10.835Z,69.67
2023-01-06T04:59:37.674Z,69.62
2023-01-06T05:02:04.489Z,69.67
2023-01-06T05:04:46.613Z,69.89
2023-01-06T05:07:14.112Z,69.96
2023-01-06T05:09:40.856Z,70.00
2023-01-06T05:12:08.003Z,69.94
2023-01-06T05:14:34.834Z,70.01
2023-01-06T05:17:01.719Z,69.84
2023-01-06T05:19:28.453Z,69.91
2023-01-06T05:21:55.277Z,70.01
2023-01-06T05:24:22.145Z,69.85
2023-01-06T05:26:49.280Z,69.90
2023-01-06T05:29:16.649Z,69.87
2023-01-06T05:31:43.848Z,69.89
2023-01-06T05:34:11.740Z,69.96
2023-01-06T05:36:38.587Z,69.96
2023-01-06T05:39:05.427Z,69.91
2023-01-06T05:41:32.237Z,69.85
2023-01-06T05:43:58.999Z,69.98
2023-01-06T05:46:25.722Z,69.83
2023-01-06T05:48:52.586Z,69.92
2023-01-06T05:51:19.332Z,69.88
2023-01-06T05:53:48.253Z,69.84
2023-01-06T05:56:18.030Z,69.55
2023-01-06T05:58:47.646Z,69.61
2023-01-06T06:01:22.520Z,69.20
2023-01-06T06:03:50.266Z,69.65
2023-01-06T06:06:18.085Z,69.70
2023-01-06T06:08:45.033Z,69.62
2023-01-06T06:11:14.676Z,69.65
2023-01-06T06:13:53.301Z,68.85
2023-01-06T06:16:23.119Z,69.65
2023-01-06T06:18:52.078Z,69.66
2023-01-06T06:21:22.011Z,69.52
2023-01-06T06:23:49.435Z,69.92
2023-01-06T06:26:16.643Z,69.81
2023-01-06T06:28:43.440Z,69.93
2023-01-06T06:31:13.798Z,69.79
2023-01-06T06:33:41.001Z,69.89
2023-01-06T06:36:08.832Z,69.73
2023-01-06T06:38:35.764Z,69.92
2023-01-06T06:41:02.697Z,70.01
2023-01-06T06:43:29.695Z,70.17
2023-01-06T06:45:56.901Z,70.12
2023-01-06T06:48:23.799Z,70.13
2023-01-06T06:51:06.313Z,69.40
2023-01-06T06:53:34.141Z,70.16
2023-01-06T06:56:01.197Z,70.21
2023-01-06T06:58:28.080Z,70.10
2023-01-06T07:00:55.053Z,70.02
2023-01-06T07:03:22.061Z,69.92
2023-01-06T07:05:50.661Z,69.63
2023-01-06T07:08:17.700Z,69.89
2023-01-06T07:10:44.939Z,70.11
2023-01-06T07:13:12.465Z,70.13
2023-01-06T07:15:39.567Z,70.38
2023-01-06T07:18:09.528Z,69.98
2023-01-06T07:20:38.960Z,70.35
2023-01-06T07:23:05.795Z,70.49
2023-01-06T07:25:33.191Z,70.67
2023-01-06T07:28:01.305Z,70.56
2023-01-06T07:30:28.008Z,69.70
2023-01-06T07:32:54.856Z,70.79
2023-01-06T07:35:22.026Z,70.84
2023-01-06T07:37:49.065Z,70.92
2023-01-06T07:42:48.267Z,71.03
2023-01-06T07:45:14.954Z,71.33
2023-01-06T07:47:41.413Z,71.50
2023-01-06T07:50:08.008Z,71.46
2023-01-06T07:52:34.685Z,71.65
2023-01-06T07:55:01.191Z,71.81
2023-01-06T07:57:28.904Z,71.71
2023-01-06T07:59:55.645Z,72.00
2023-01-06T08:02:22.720Z,72.11
2023-01-06T08:04:49.792Z,72.19
2023-01-06T08:07:17.253Z,72.30
2023-01-06T08:09:43.878Z,72.29
2023-01-06T08:12:10.404Z,72.68
2023-01-06T08:14:36.877Z,72.57
2023-01-06T08:17:03.521Z,72.73
2023-01-06T08:19:30.422Z,72.87
2023-01-06T08:21:56.988Z,73.06
2023-01-06T08:24:23.471Z,72.97
2023-01-06T08:26:50.015Z,73.30
2023-01-06T08:29:16.564Z,73.27
2023-01-06T08:31:43.062Z,73.32
2023-01-06T08:34:09.614Z,73.27
2023-01-06T08:36:36.118Z,73.55
2023-01-06T08:39:02.864Z,73.62
2023-01-06T08:41:29.404Z,73.83
2023-01-06T08:43:55.883Z,73.83
2023-01-06T08:46:22.525Z,74.01
2023-01-06T08:48:49.270Z,74.26
2023-01-06T08:51:19.342Z,74.17
2023-01-06T08:53:45.962Z,74.51
2023-01-06T08:56:14.623Z,74.91
2023-01-06T08:58:41.733Z,75.28
2023-01-06T09:01:16.569Z,74.40
2023-01-06T09:03:43.397Z,75.50
2023-01-06T09:06:10.312Z,75.50
2023-01-06T09:08:36.964Z,75.69
2023-01-06T09:11:11.070Z,74.67
2023-01-06T09:13:38.218Z,75.82
2023-01-06T09:16:09.307Z,75.82
2023-01-06T09:18:36.317Z,75.89
2023-01-06T09:21:03.988Z,76.13
2023-01-06T09:23:31.302Z,76.08
2023-01-06T09:25:58.497Z,76.32
2023-01-06T09:28:26.190Z,76.29
2023-01-06T09:30:52.901Z,76.42
2023-01-06T09:33:19.410Z,76.32
2023-01-06T09:35:46.789Z,76.26
2023-01-06T09:38:14.293Z,76.17
2023-01-06T09:41:02.603Z,73.20
2023-01-06T09:43:35.088Z,75.58
2023-01-06T09:46:04.926Z,76.32
2023-01-06T09:48:38.372Z,75.88
2023-01-06T09:51:06.901Z,76.36
2023-01-06T09:53:43.789Z,74.83
2023-01-06T09:56:16.388Z,75.34
2023-01-06T09:58:56.406Z,73.67
2023-01-06T10:01:31.046Z,74.65
2023-01-06T10:03:57.798Z,76.54
2023-01-06T10:06:54.834Z,72.08
2023-01-06T10:09:38.336Z,73.68
2023-01-06T10:12:35.269Z,72.64
2023-01-06T10:15:14.666Z,74.43
2023-01-06T10:18:03.204Z,72.61
2023-01-06T10:20:54.472Z,72.76
2023-01-06T10:23:51.607Z,73.58
2023-01-06T10:26:32.735Z,72.15
2023-01-06T10:29:13.651Z,73.97
2023-01-06T10:31:43.757Z,76.73
2023-01-06T10:34:20.502Z,74.41
2023-01-06T10:36:54.838Z,74.31
2023-01-06T10:39:25.204Z,75.63
2023-01-06T10:42:19.360Z,73.60
2023-01-06T10:44:46.168Z,76.88
2023-01-06T10:47:25.450Z,72.85
2023-01-06T10:49:52.177Z,76.64
2023-01-06T10:52:20.207Z,76.85
2023-01-06T10:54:46.754Z,72.38
2023-01-06T10:57:23.467Z,73.14
2023-01-06T11:00:08.897Z,72.22
2023-01-06T11:02:35.604Z,76.77
2023-01-06T11:05:02.394Z,76.94
2023-01-06T11:07:30.272Z,76.38
2023-01-06T11:09:57.628Z,76.17
2023-01-06T11:12:26.714Z,75.56
2023-01-06T11:14:58.578Z,73.29
2023-01-06T11:17:26.359Z,75.86
2023-01-06T11:20:18.843Z,63.73
2023-01-06T11:22:45.442Z,74.30
2023-01-06T11:25:20.732Z,70.97
2023-01-06T11:28:09.007Z,71.68
2023-01-06T11:30:42.924Z,71.51
2023-01-06T11:33:24.636Z,73.21
2023-01-06T11:35:52.430Z,75.02
2023-01-06T11:38:21.299Z,74.29
2023-01-06T11:40:52.667Z,72.97
2023-01-06T11:43:25.617Z,71.55
2023-01-06T11:45:58.108Z,74.37
2023-01-06T11:48:33.057Z,73.45
2023-01-06T11:51:07.739Z,70.31
2023-01-06T11:53:34.826Z,74.56
2023-01-06T11:56:04.233Z,73.82
2023-01-06T11:58:54.407Z,72.46
2023-01-06T12:01:33.383Z,69.02
2023-01-06T12:04:34.973Z,68.62
2023-01-06T12:07:26.441Z,71.07
2023-01-06T12:09:58.473Z,73.18
2023-01-06T12:12:27.673Z,72.87
2023-01-06T12:14:55.338Z,74.47
2023-01-06T12:17:40.069Z,72.86
2023-01-06T12:20:19.368Z,72.20
2023-01-06T12:22:49.817Z,72.27
2023-01-06T12:25:21.728Z,72.10
2023-01-06T12:27:58.920Z,70.09
2023-01-06T12:30:46.623Z,69.42
2023-01-06T12:33:24.369Z,70.55
2023-01-06T12:35:55.601Z,71.69
2023-01-06T12:38:39.239Z,73.51
2023-01-06T12:41:15.886Z,69.42
2023-01-06T12:43:48.872Z,72.32
2023-01-06T12:46:24.878Z,66.97
2023-01-06T12:48:56.932Z,69.24
2023-01-06T12:51:35.776Z,69.75
2023-01-06T12:54:10.198Z,68.08
2023-01-06T12:57:05.097Z,66.67
2023-01-06T12:59:37.496Z,67.00
2023-01-06T13:02:31.309Z,69.73
2023-01-06T13:05:26.069Z,69.58
2023-01-06T13:08:26.501Z,69.58
2023-01-06T13:11:07.881Z,70.57
2023-01-06T13:13:51.524Z,72.19
2023-01-06T13:16:30.358Z,67.88
2023-01-06T13:19:25.673Z,65.20
2023-01-06T13:21:59.330Z,71.62
2023-01-06T13:24:56.594Z,62.88
2023-01-06T13:27:23.105Z,71.44
2023-01-06T13:30:14.485Z,68.10
2023-01-06T13:33:18.867Z,63.02
2023-01-06T13:36:10.229Z,66.79
2023-01-06T13:38:58.517Z,61.16
2023-01-06T13:41:33.916Z,69.31
2023-01-06T13:44:02.419Z,68.08
2023-01-06T13:46:30.806Z,69.09
2023-01-06T13:49:04.682Z,67.89
2023-01-06T13:51:40.695Z,67.97
2023-01-06T13:54:07.368Z,70.17
2023-01-06T13:56:35.339Z,68.93
2023-01-06T13:59:28.403Z,65.29
2023-01-06T14:01:55.092Z,68.99
2023-01-06T14:04:30.676Z,63.02
2023-01-06T14:06:57.422Z,68.82
2023-01-06T14:09:24.386Z,69.23
2023-01-06T14:11:51.168Z,69.64
2023-01-06T14:14:24.391Z,66.61
2023-01-06T14:16:52.705Z,69.45
2023-01-06T14:19:21.805Z,69.49
2023-01-06T14:21:50.839Z,69.39
2023-01-06T14:24:30.839Z,69.05
2023-01-06T14:27:02.707Z,65.81
2023-01-06T14:29:41.451Z,63.70
2023-01-06T14:32:09.121Z,67.28
2023-01-06T14:34:38.491Z,68.11
2023-01-06T14:37:11.669Z,67.91
2023-01-06T14:39:46.730Z,67.18
2023-01-06T14:42:19.556Z,65.83
2023-01-06T14:44:52.134Z,62.06
2023-01-06T14:47:29.160Z,65.87
2023-01-06T14:50:04.432Z,65.74
2023-01-06T14:52:48.170Z,63.45
2023-01-06T14:55:18.925Z,65.22
2023-01-06T14:57:45.743Z,67.33
2023-01-06T15:00:20.128Z,66.97
2023-01-06T15:02:50.264Z,66.88
2023-01-06T15:05:32.796Z,63.24
2023-01-06T15:08:06.929Z,64.23
2023-01-06T15:10:40.380Z,65.53
2023-01-06T15:13:24.118Z,64.97
2023-01-06T15:16:23.217Z,63.42
2023-01-06T15:18:50.587Z,66.98
2023-01-06T15:21:17.190Z,67.65
2023-01-06T15:23:47.900Z,67.05
2023-01-06T15:26:20.442Z,65.06
2023-01-06T15:29:05.408Z,65.35
2023-01-06T15:31:34.837Z,66.91
2023-01-06T15:34:06.326Z,66.93
2023-01-06T15:36:33.644Z,67.98
2023-01-06T15:39:04.578Z,67.13
2023-01-06T15:41:32.826Z,68.26
2023-01-06T15:44:01.616Z,67.74
2023-01-06T15:46:38.962Z,65.92
2023-01-06T15:49:06.393Z,68.12
2023-01-06T15:51:34.585Z,68.50
2023-01-06T15:54:01.143Z,66.97
2023-01-06T15:56:29.836Z,68.00
2023-01-06T15:58:59.212Z,67.52
2023-01-06T16:01:25.956Z,68.75
2023-01-06T16:03:55.231Z,68.29
2023-01-06T16:06:32.787Z,66.88
2023-01-06T16:09:20.939Z,66.43
2023-01-06T16:11:58.550Z,65.86
2023-01-06T16:14:27.765Z,66.58
2023-01-06T16:17:02.480Z,65.84
2023-01-06T16:19:29.641Z,68.40
2023-01-06T16:21:56.691Z,68.36
2023-01-06T16:24:27.484Z,64.81
2023-01-06T16:27:02.775Z,65.22
2023-01-06T16:29:30.448Z,67.45
2023-01-06T16:32:00.406Z,67.54
2023-01-06T16:34:31.410Z,66.46
2023-01-06T16:37:00.200Z,67.63
2023-01-06T16:39:27.775Z,67.85
2023-01-06T16:42:00.318Z,65.52
2023-01-06T16:44:27.735Z,67.43
2023-01-06T16:46:54.250Z,68.00
2023-01-06T16:49:22.630Z,67.30
2023-01-06T16:51:49.468Z,67.94
2023-01-06T16:54:16.869Z,68.30
2023-01-06T16:56:43.554Z,68.51
2023-01-06T16:59:12.752Z,68.34
2023-01-06T17:01:39.652Z,68.52
2023-01-06T17:04:06.327Z,68.66
2023-01-06T17:06:32.965Z,68.45
2023-01-06T17:09:09.855Z,67.02
2023-01-06T17:11:36.392Z,68.32
2023-01-06T17:14:09.701Z,68.07
2023-01-06T17:16:40.138Z,66.97
2023-01-06T17:19:18.218Z,65.27
2023-01-06T17:21:45.635Z,68.15
2023-01-06T17:24:16.169Z,65.97
2023-01-06T17:27:07.915Z,65.74
2023-01-06T17:29:36.848Z,68.22
2023-01-06T17:32:13.866Z,67.25
2023-01-06T17:34:40.407Z,68.35
2023-01-06T17:37:13.181Z,66.35
2023-01-06T17:39:41.721Z,68.33
2023-01-06T17:42:08.164Z,68.18
2023-01-06T17:44:40.183Z,66.27
2023-01-06T17:47:14.756Z,64.81
2023-01-06T17:49:43.940Z,67.82
2023-01-06T17:52:28.324Z,65.53
2023-01-06T17:54:58.760Z,67.54
2023-01-06T17:57:26.108Z,68.22
2023-01-06T17:59:56.336Z,66.77
2023-01-06T18:02:34.794Z,67.10
2023-01-06T18:05:31.346Z,66.23
2023-01-06T18:08:07.093Z,66.34
2023-01-06T18:10:35.824Z,68.86
2023-01-06T18:13:32.153Z,66.06
2023-01-06T18:16:00.311Z,68.83
2023-01-06T18:18:35.338Z,69.00
2023-01-06T18:21:17.196Z,65.65
2023-01-06T18:23:49.003Z,68.44
2023-01-06T18:26:35.890Z,65.59
2023-01-06T18:29:12.643Z,66.04
2023-01-06T18:31:40.228Z,68.91
2023-01-06T18:34:38.636Z,66.33
2023-01-06T18:37:05.251Z,69.24
2023-01-06T18:39:43.364Z,65.50
2023-01-06T18:42:21.865Z,64.64
2023-01-06T18:44:48.425Z,68.42
2023-01-06T18:47:21.415Z,66.80
2023-01-06T18:49:49.673Z,68.09
2023-01-06T18:52:31.280Z,64.10
2023-01-06T18:54:58.590Z,68.52
2023-01-06T18:57:29.801Z,66.59
2023-01-06T19:00:11.684Z,67.64
2023-01-06T19:02:39.333Z,68.53
2023-01-06T19:05:11.871Z,67.27
2023-01-06T19:07:38.364Z,68.93
2023-01-06T19:10:22.391Z,66.67
2023-01-06T19:12:48.847Z,68.52
2023-01-06T19:15:24.097Z,66.34
2023-01-06T19:17:50.835Z,68.48
2023-01-06T19:20:26.779Z,66.71
2023-01-06T19:22:53.245Z,68.50
2023-01-06T19:25:26.471Z,65.77
2023-01-06T19:27:57.135Z,67.51
2023-01-06T19:30:26.623Z,68.91
2023-01-06T19:32:53.171Z,69.17
2023-01-06T19:35:24.122Z,67.91
2023-01-06T19:37:55.246Z,68.26
2023-01-06T19:40:26.444Z,68.08
2023-01-06T19:42:57.690Z,69.06
2023-01-06T19:45:29.853Z,67.97
2023-01-06T19:47:58.848Z,69.19
2023-01-06T19:50:25.370Z,69.76
2023-01-06T19:52:59.212Z,67.22
2023-01-06T19:55:27.800Z,68.70
2023-01-06T19:58:15.418Z,66.47
2023-01-06T20:00:49.725Z,67.29
2023-01-06T20:03:34.856Z,67.09
2023-01-06T20:06:02.142Z,69.42
2023-01-06T20:08:28.922Z,68.96
2023-01-06T20:10:55.464Z,69.12
2023-01-06T20:13:22.115Z,69.21
2023-01-06T20:15:48.597Z,69.11
2023-01-06T20:18:15.124Z,69.42
2023-01-06T20:20:41.631Z,69.56
2023-01-06T20:23:08.171Z,69.55
2023-01-06T20:25:34.640Z,69.68
2023-01-06T20:28:01.205Z,69.50
2023-01-06T20:30:27.705Z,69.35
2023-01-06T20:32:54.226Z,69.39
2023-01-06T20:35:20.940Z,69.48
2023-01-06T20:37:47.468Z,69.16
2023-01-06T20:40:14.146Z,68.96
2023-01-06T20:42:40.684Z,68.62
2023-01-06T20:45:07.833Z,68.66
2023-01-06T20:47:34.397Z,69.03
2023-01-06T20:50:00.915Z,69.08
2023-01-06T20:52:27.504Z,68.44
2023-01-06T20:54:54.087Z,68.47
2023-01-06T20:57:20.595Z,68.71
2023-01-06T20:59:47.171Z,68.97
2023-01-06T21:02:13.780Z,69.03
2023-01-06T21:04:40.343Z,68.97
2023-01-06T21:07:06.918Z,68.93
2023-01-06T21:09:33.485Z,69.07
2023-01-06T21:12:00.012Z,69.03
2023-01-06T21:14:26.590Z,69.20
2023-01-06T21:16:53.144Z,69.42
2023-01-06T21:19:19.710Z,69.51
2023-01-06T21:21:46.178Z,69.30
2023-01-06T21:24:12.722Z,69.44
2023-01-06T21:26:39.285Z,69.36
2023-01-06T21:29:05.895Z,69.61
2023-01-06T21:31:32.588Z,69.63
2023-01-06T21:33:59.230Z,69.66
2023-01-06T21:36:25.829Z,69.38
2023-01-06T21:38:52.304Z,69.55
2023-01-06T21:41:18.808Z,69.82
2023-01-06T21:43:45.324Z,69.87
2023-01-06T21:46:11.830Z,69.64
2023-01-06T21:48:38.443Z,69.68
2023-01-06T21:51:05.093Z,69.76
2023-01-06T21:53:32.228Z,69.91
2023-01-06T21:55:59.347Z,69.79
2023-01-06T21:58:25.956Z,69.90
2023-01-06T22:00:52.524Z,69.75
2023-01-06T22:03:19.141Z,69.85
2023-01-06T22:05:46.302Z,69.81
2023-01-06T22:08:13.221Z,69.89
2023-01-06T22:10:42.589Z,69.33
2023-01-06T22:13:12.210Z,69.02
2023-01-06T22:15:39.150Z,69.59
2023-01-06T22:18:07.363Z,69.27
2023-01-06T22:20:34.335Z,69.86
2023-01-06T22:23:03.576Z,69.45
2023-01-06T22:25:30.115Z,69.52
2023-01-06T22:27:56.869Z,69.37
2023-01-06T22:30:23.417Z,69.27
2023-01-06T22:32:49.935Z,69.29
2023-01-06T22:35:17.517Z,69.14
2023-01-06T22:37:44.630Z,69.42
2023-01-06T22:40:13.486Z,69.32
2023-01-06T22:42:40.281Z,69.59
2023-01-06T22:45:08.117Z,69.34
2023-01-06T22:47:34.715Z,69.67
2023-01-06T22:50:01.303Z,69.58
2023-01-06T22:52:28.514Z,69.45
2023-01-06T22:54:55.045Z,69.53
2023-01-06T22:57:21.572Z,69.60
2023-01-06T22:59:48.125Z,69.78
2023-01-06T23:02:14.824Z,69.49
2023-01-06T23:04:41.440Z,69.41
2023-01-06T23:07:08.013Z,69.60
2023-01-06T23:09:34.632Z,69.66
2023-01-06T23:12:01.080Z,69.53
2023-01-06T23:14:27.684Z,69.64
2023-01-06T23:16:54.206Z,69.67
2023-01-06T23:19:20.687Z,69.73
2023-01-06T23:21:47.193Z,69.81
2023-01-06T23:24:14.010Z,69.86
2023-01-06T23:26:43.343Z,69.32
2023-01-06T23:29:10.617Z,69.74
2023-01-06T23:31:40.270Z,69.22
2023-01-06T23:34:09.325Z,68.94
2023-01-06T23:36:36.510Z,69.16
2023-01-06T23:39:05.130Z,69.23
2023-01-06T23:41:34.053Z,68.98
2023-01-06T23:44:01.351Z,69.18
2023-01-06T23:46:31.378Z,68.75
2023-01-06T23:48:58.309Z,69.26
2023-01-06T23:51:26.050Z,69.27
2023-01-06T23:53:53.127Z,69.38
2023-01-06T23:56:22.009Z,69.09
2023-01-06T23:58:51.546Z,69.25
